sensor_id;sensor_type;location;lat;lon;timestamp;pressure;altitude;pressure_sealevel;temperature;humidity
76815;BME280;65768;49.906;19.384;2023-05-07T00:00:26;98399.60;;;10.10;96.23
76815;BME280;65768;49.906;19.384;2023-05-07T00:03:24;98395.05;;;10.07;96.37
76815;BME280;65768;49.906;19.384;2023-05-07T00:06:00;98387.22;;;10.07;96.45
76815;BME280;65768;49.906;19.384;2023-05-07T00:08:50;98391.02;;;10.02;96.68
76815;BME280;65768;49.906;19.384;2023-05-07T00:11:37;98392.94;;;10.01;96.67
76815;BME280;65768;49.906;19.384;2023-05-07T00:14:11;98392.75;;;9.99;96.99
76815;BME280;65768;49.906;19.384;2023-05-07T00:17:04;98393.26;;;9.96;97.22
76815;BME280;65768;49.906;19.384;2023-05-07T00:19:38;98390.80;;;9.92;97.36
76815;BME280;65768;49.906;19.384;2023-05-07T00:22:15;98398.27;;;9.91;97.41
76815;BME280;65768;49.906;19.384;2023-05-07T00:24:54;98397.92;;;9.90;97.48
76815;BME280;65768;49.906;19.384;2023-05-07T00:27:29;98393.20;;;9.86;97.73
76815;BME280;65768;49.906;19.384;2023-05-07T00:30:10;98392.32;;;9.85;97.96
76815;BME280;65768;49.906;19.384;2023-05-07T00:32:52;98395.11;;;9.85;97.95
76815;BME280;65768;49.906;19.384;2023-05-07T00:35:28;98398.23;;;9.84;98.32
76815;BME280;65768;49.906;19.384;2023-05-07T00:38:09;98398.56;;;9.81;98.26
76815;BME280;65768;49.906;19.384;2023-05-07T00:40:43;98395.78;;;9.81;98.35
76815;BME280;65768;49.906;19.384;2023-05-07T00:43:22;98396.98;;;9.79;98.46
76815;BME280;65768;49.906;19.384;2023-05-07T00:45:56;98402.02;;;9.77;98.98
76815;BME280;65768;49.906;19.384;2023-05-07T00:48:31;98400.45;;;9.77;99.20
76815;BME280;65768;49.906;19.384;2023-05-07T00:51:08;98400.60;;;9.74;99.16
76815;BME280;65768;49.906;19.384;2023-05-07T00:53:49;98404.42;;;9.72;99.29
76815;BME280;65768;49.906;19.384;2023-05-07T00:56:31;98398.50;;;9.70;99.39
76815;BME280;65768;49.906;19.384;2023-05-07T00:59:13;98399.52;;;9.69;99.84
76815;BME280;65768;49.906;19.384;2023-05-07T01:01:54;98395.16;;;9.66;99.90
76815;BME280;65768;49.906;19.384;2023-05-07T01:04:43;98399.15;;;9.65;99.98
76815;BME280;65768;49.906;19.384;2023-05-07T01:07:23;98404.70;;;9.64;100.00
76815;BME280;65768;49.906;19.384;2023-05-07T01:10:07;98405.75;;;9.62;100.00
76815;BME280;65768;49.906;19.384;2023-05-07T01:12:43;98402.41;;;9.60;100.00
76815;BME280;65768;49.906;19.384;2023-05-07T01:15:28;98402.08;;;9.60;100.00
76815;BME280;65768;49.906;19.384;2023-05-07T01:18:08;98403.46;;;9.60;100.00
76815;BME280;65768;49.906;19.384;2023-05-07T01:20:54;98402.24;;;9.60;100.00
76815;BME280;65768;49.906;19.384;2023-05-07T01:23:44;98405.90;;;9.59;100.00
76815;BME280;65768;49.906;19.384;2023-05-07T01:26:15;98407.13;;;9.60;100.00
76815;BME280;65768;49.906;19.384;2023-05-07T01:28:59;98405.02;;;9.60;100.00
76815;BME280;65768;49.906;19.384;2023-05-07T01:31:47;98409.91;;;9.60;100.00
76815;BME280;65768;49.906;19.384;2023-05-07T01:34:24;98405.55;;;9.61;100.00
76815;BME280;65768;49.906;19.384;2023-05-07T01:37:16;98402.60;;;9.60;100.00
76815;BME280;65768;49.906;19.384;2023-05-07T01:39:57;98402.94;;;9.60;100.00
76815;BME280;65768;49.906;19.384;2023-05-07T01:42:42;98403.48;;;9.61;100.00
76815;BME280;65768;49.906;19.384;2023-05-07T01:45:31;98406.79;;;9.62;100.00
76815;BME280;65768;49.906;19.384;2023-05-07T01:48:29;98410.45;;;9.62;100.00
76815;BME280;65768;49.906;19.384;2023-05-07T01:51:05;98406.27;;;9.64;100.00
76815;BME280;65768;49.906;19.384;2023-05-07T01:56:38;98410.98;;;9.63;100.00
76815;BME280;65768;49.906;19.384;2023-05-07T01:59:37;98409.91;;;9.60;100.00
76815;BME280;65768;49.906;19.384;2023-05-07T02:02:17;98410.77;;;9.60;100.00
76815;BME280;65768;49.906;19.384;2023-05-07T02:04:58;98414.42;;;9.59;100.00
76815;BME280;65768;49.906;19.384;2023-05-07T02:07:42;98415.97;;;9.57;100.00
76815;BME280;65768;49.906;19.384;2023-05-07T02:10:34;98415.76;;;9.51;100.00
76815;BME280;65768;49.906;19.384;2023-05-07T02:13:29;98409.30;;;9.49;100.00
76815;BME280;65768;49.906;19.384;2023-05-07T02:16:18;98410.84;;;9.43;100.00
76815;BME280;65768;49.906;19.384;2023-05-07T02:19:13;98413.09;;;9.43;100.00
76815;BME280;65768;49.906;19.384;2023-05-07T02:21:57;98416.20;;;9.41;100.00
76815;BME280;65768;49.906;19.384;2023-05-07T02:24:39;98417.92;;;9.39;100.00
76815;BME280;65768;49.906;19.384;2023-05-07T02:27:31;98415.13;;;9.38;100.00
76815;BME280;65768;49.906;19.384;2023-05-07T02:30:14;98416.00;;;9.38;100.00
76815;BME280;65768;49.906;19.384;2023-05-07T02:33:00;98417.89;;;9.36;100.00
76815;BME280;65768;49.906;19.384;2023-05-07T02:38:37;98414.71;;;9.30;100.00
76815;BME280;65768;49.906;19.384;2023-05-07T02:41:22;98415.43;;;9.32;100.00
76815;BME280;65768;49.906;19.384;2023-05-07T02:44:18;98423.97;;;9.34;100.00
76815;BME280;65768;49.906;19.384;2023-05-07T02:49:47;98419.77;;;9.32;100.00
76815;BME280;65768;49.906;19.384;2023-05-07T02:52:24;98420.46;;;9.30;100.00
76815;BME280;65768;49.906;19.384;2023-05-07T02:55:12;98420.98;;;9.29;100.00
76815;BME280;65768;49.906;19.384;2023-05-07T02:58:02;98422.70;;;9.28;100.00
76815;BME280;65768;49.906;19.384;2023-05-07T03:01:10;98424.41;;;9.26;100.00
76815;BME280;65768;49.906;19.384;2023-05-07T03:03:53;98422.48;;;9.23;100.00
76815;BME280;65768;49.906;19.384;2023-05-07T03:06:30;98419.19;;;9.24;100.00
76815;BME280;65768;49.906;19.384;2023-05-07T03:09:07;98426.50;;;9.25;100.00
76815;BME280;65768;49.906;19.384;2023-05-07T03:11:57;98425.10;;;9.24;100.00
76815;BME280;65768;49.906;19.384;2023-05-07T03:14:31;98428.73;;;9.22;100.00
76815;BME280;65768;49.906;19.384;2023-05-07T03:17:14;98431.67;;;9.21;100.00
76815;BME280;65768;49.906;19.384;2023-05-07T03:19:52;98433.92;;;9.19;100.00
76815;BME280;65768;49.906;19.384;2023-05-07T03:22:45;98439.32;;;9.19;100.00
76815;BME280;65768;49.906;19.384;2023-05-07T03:25:27;98441.52;;;9.13;100.00
76815;BME280;65768;49.906;19.384;2023-05-07T03:28:08;98445.54;;;8.99;100.00
76815;BME280;65768;49.906;19.384;2023-05-07T03:30:42;98451.38;;;8.91;100.00
76815;BME280;65768;49.906;19.384;2023-05-07T03:34:00;98449.63;;;8.89;100.00
76815;BME280;65768;49.906;19.384;2023-05-07T03:36:33;98449.79;;;8.88;100.00
76815;BME280;65768;49.906;19.384;2023-05-07T03:39:17;98449.06;;;8.86;100.00
76815;BME280;65768;49.906;19.384;2023-05-07T03:42:01;98455.86;;;8.86;100.00
76815;BME280;65768;49.906;19.384;2023-05-07T03:44:41;98456.52;;;8.84;100.00
76815;BME280;65768;49.906;19.384;2023-05-07T03:47:31;98462.05;;;8.83;100.00
76815;BME280;65768;49.906;19.384;2023-05-07T03:50:08;98462.56;;;8.81;100.00
76815;BME280;65768;49.906;19.384;2023-05-07T03:52:43;98461.35;;;8.80;100.00
76815;BME280;65768;49.906;19.384;2023-05-07T03:55:22;98463.61;;;8.81;100.00
76815;BME280;65768;49.906;19.384;2023-05-07T03:57:56;98462.94;;;8.82;100.00
76815;BME280;65768;49.906;19.384;2023-05-07T04:00:39;98467.63;;;8.83;100.00
76815;BME280;65768;49.906;19.384;2023-05-07T04:03:15;98474.45;;;8.86;100.00
76815;BME280;65768;49.906;19.384;2023-05-07T04:05:57;98474.64;;;8.88;100.00
76815;BME280;65768;49.906;19.384;2023-05-07T04:08:29;98479.20;;;8.91;100.00
76815;BME280;65768;49.906;19.384;2023-05-07T04:11:35;98478.35;;;8.92;100.00
76815;BME280;65768;49.906;19.384;2023-05-07T04:14:23;98479.75;;;8.94;100.00
76815;BME280;65768;49.906;19.384;2023-05-07T04:17:04;98480.99;;;8.96;100.00
76815;BME280;65768;49.906;19.384;2023-05-07T04:19:37;98487.43;;;8.97;100.00
76815;BME280;65768;49.906;19.384;2023-05-07T04:22:33;98493.86;;;8.97;100.00
76815;BME280;65768;49.906;19.384;2023-05-07T04:25:22;98498.20;;;8.96;100.00
76815;BME280;65768;49.906;19.384;2023-05-07T04:30:43;98504.04;;;8.89;100.00
76815;BME280;65768;49.906;19.384;2023-05-07T04:33:37;98503.49;;;8.88;100.00
76815;BME280;65768;49.906;19.384;2023-05-07T04:36:22;98507.51;;;8.89;100.00
76815;BME280;65768;49.906;19.384;2023-05-07T04:39:05;98510.11;;;8.88;100.00
76815;BME280;65768;49.906;19.384;2023-05-07T04:41:39;98508.88;;;8.88;100.00
76815;BME280;65768;49.906;19.384;2023-05-07T04:44:31;98512.20;;;8.89;100.00
76815;BME280;65768;49.906;19.384;2023-05-07T04:47:29;98519.30;;;8.88;100.00
76815;BME280;65768;49.906;19.384;2023-05-07T04:50:24;98524.33;;;8.85;100.00
76815;BME280;65768;49.906;19.384;2023-05-07T04:53:21;98524.17;;;8.73;100.00
76815;BME280;65768;49.906;19.384;2023-05-07T04:56:09;98525.07;;;8.75;100.00
76815;BME280;65768;49.906;19.384;2023-05-07T04:58:45;98526.45;;;8.75;100.00
76815;BME280;65768;49.906;19.384;2023-05-07T05:01:26;98531.69;;;8.76;100.00
76815;BME280;65768;49.906;19.384;2023-05-07T05:04:17;98535.59;;;8.81;100.00
76815;BME280;65768;49.906;19.384;2023-05-07T05:07:15;98537.14;;;8.81;100.00
76815;BME280;65768;49.906;19.384;2023-05-07T05:10:15;98537.13;;;8.80;100.00
76815;BME280;65768;49.906;19.384;2023-05-07T05:13:18;98544.27;;;8.80;100.00
76815;BME280;65768;49.906;19.384;2023-05-07T05:15:59;98544.19;;;8.74;100.00
76815;BME280;65768;49.906;19.384;2023-05-07T05:21:36;98553.25;;;8.51;100.00
76815;BME280;65768;49.906;19.384;2023-05-07T05:24:36;98557.56;;;8.37;100.00
76815;BME280;65768;49.906;19.384;2023-05-07T05:27:20;98564.77;;;8.34;100.00
76815;BME280;65768;49.906;19.384;2023-05-07T05:39:20;98578.92;;;8.27;100.00
76815;BME280;65768;49.906;19.384;2023-05-07T05:42:10;98585.48;;;8.24;100.00
76815;BME280;65768;49.906;19.384;2023-05-07T05:45:13;98585.63;;;8.11;100.00
76815;BME280;65768;49.906;19.384;2023-05-07T05:48:22;98588.20;;;8.10;100.00
76815;BME280;65768;49.906;19.384;2023-05-07T05:54:26;98589.09;;;8.22;100.00
76815;BME280;65768;49.906;19.384;2023-05-07T06:07:28;98592.57;;;8.01;100.00
76815;BME280;65768;49.906;19.384;2023-05-07T06:16:29;98602.72;;;8.06;100.00
76815;BME280;65768;49.906;19.384;2023-05-07T06:19:16;98604.38;;;8.11;100.00
76815;BME280;65768;49.906;19.384;2023-05-07T06:22:11;98604.16;;;8.20;100.00
76815;BME280;65768;49.906;19.384;2023-05-07T06:25:00;98605.44;;;8.13;100.00
76815;BME280;65768;49.906;19.384;2023-05-07T06:27:55;98609.12;;;8.04;100.00
76815;BME280;65768;49.906;19.384;2023-05-07T06:30:43;98618.16;;;8.05;100.00
76815;BME280;65768;49.906;19.384;2023-05-07T06:33:21;98618.14;;;8.04;100.00
76815;BME280;65768;49.906;19.384;2023-05-07T06:39:12;98627.89;;;7.95;100.00
76815;BME280;65768;49.906;19.384;2023-05-07T06:42:15;98630.55;;;7.88;100.00
76815;BME280;65768;49.906;19.384;2023-05-07T06:45:11;98626.90;;;7.78;100.00
76815;BME280;65768;49.906;19.384;2023-05-07T06:54:08;98635.92;;;7.69;100.00
76815;BME280;65768;49.906;19.384;2023-05-07T06:57:02;98640.45;;;7.60;100.00
76815;BME280;65768;49.906;19.384;2023-05-07T06:59:44;98641.05;;;7.56;100.00
76815;BME280;65768;49.906;19.384;2023-05-07T07:02:29;98640.05;;;7.49;100.00
76815;BME280;65768;49.906;19.384;2023-05-07T07:05:21;98643.55;;;7.51;100.00
76815;BME280;65768;49.906;19.384;2023-05-07T07:08:15;98642.08;;;7.46;100.00
76815;BME280;65768;49.906;19.384;2023-05-07T07:10:58;98648.74;;;7.41;100.00
76815;BME280;65768;49.906;19.384;2023-05-07T07:17:25;98658.07;;;7.39;100.00
76815;BME280;65768;49.906;19.384;2023-05-07T07:20:20;98660.09;;;7.36;100.00
76815;BME280;65768;49.906;19.384;2023-05-07T07:23:17;98668.98;;;7.38;100.00
76815;BME280;65768;49.906;19.384;2023-05-07T07:26:05;98671.21;;;7.29;100.00
76815;BME280;65768;49.906;19.384;2023-05-07T07:28:59;98668.05;;;7.18;100.00
76815;BME280;65768;49.906;19.384;2023-05-07T07:32:01;98676.38;;;7.19;100.00
76815;BME280;65768;49.906;19.384;2023-05-07T07:34:42;98675.75;;;7.22;100.00
76815;BME280;65768;49.906;19.384;2023-05-07T07:37:45;98683.44;;;7.16;100.00
76815;BME280;65768;49.906;19.384;2023-05-07T07:40:35;98687.79;;;7.17;100.00
76815;BME280;65768;49.906;19.384;2023-05-07T07:49:52;98696.83;;;7.10;100.00
76815;BME280;65768;49.906;19.384;2023-05-07T07:52:46;98692.02;;;7.12;100.00
76815;BME280;65768;49.906;19.384;2023-05-07T07:56:01;98693.65;;;7.16;100.00
76815;BME280;65768;49.906;19.384;2023-05-07T07:59:11;98702.80;;;7.14;100.00
76815;BME280;65768;49.906;19.384;2023-05-07T08:02:08;98704.80;;;7.10;100.00
76815;BME280;65768;49.906;19.384;2023-05-07T08:07:45;98718.60;;;7.08;100.00
76815;BME280;65768;49.906;19.384;2023-05-07T08:11:11;98718.18;;;7.12;100.00
76815;BME280;65768;49.906;19.384;2023-05-07T08:13:52;98723.38;;;7.12;100.00
76815;BME280;65768;49.906;19.384;2023-05-07T08:16:36;98727.14;;;7.10;100.00
76815;BME280;65768;49.906;19.384;2023-05-07T08:19:17;98731.81;;;7.09;100.00
76815;BME280;65768;49.906;19.384;2023-05-07T08:21:54;98731.22;;;7.06;100.00
76815;BME280;65768;49.906;19.384;2023-05-07T08:30:46;98737.33;;;7.23;100.00
76815;BME280;65768;49.906;19.384;2023-05-07T08:33:54;98743.09;;;7.26;100.00
76815;BME280;65768;49.906;19.384;2023-05-07T08:36:44;98740.13;;;7.25;100.00
76815;BME280;65768;49.906;19.384;2023-05-07T08:39:39;98744.95;;;7.23;100.00
76815;BME280;65768;49.906;19.384;2023-05-07T08:42:16;98754.41;;;7.27;100.00
76815;BME280;65768;49.906;19.384;2023-05-07T08:44:59;98752.14;;;7.35;100.00
76815;BME280;65768;49.906;19.384;2023-05-07T08:48:15;98757.41;;;7.29;100.00
76815;BME280;65768;49.906;19.384;2023-05-07T08:51:01;98759.92;;;7.33;100.00
76815;BME280;65768;49.906;19.384;2023-05-07T08:53:58;98760.29;;;7.34;100.00
76815;BME280;65768;49.906;19.384;2023-05-07T08:57:11;98764.46;;;7.35;100.00
76815;BME280;65768;49.906;19.384;2023-05-07T09:00:00;98772.05;;;7.33;100.00
76815;BME280;65768;49.906;19.384;2023-05-07T09:02:45;98778.02;;;7.28;100.00
76815;BME280;65768;49.906;19.384;2023-05-07T09:06:07;98779.34;;;7.26;100.00
76815;BME280;65768;49.906;19.384;2023-05-07T09:12:14;98783.55;;;7.35;100.00
76815;BME280;65768;49.906;19.384;2023-05-07T09:18:42;98791.01;;;7.28;100.00
76815;BME280;65768;49.906;19.384;2023-05-07T09:21:32;98791.75;;;7.46;100.00
76815;BME280;65768;49.906;19.384;2023-05-07T09:24:22;98793.27;;;7.43;100.00
76815;BME280;65768;49.906;19.384;2023-05-07T09:33:14;98800.23;;;7.52;99.26
76815;BME280;65768;49.906;19.384;2023-05-07T09:36:01;98805.44;;;7.60;99.14
76815;BME280;65768;49.906;19.384;2023-05-07T09:42:08;98807.44;;;7.57;98.89
76815;BME280;65768;49.906;19.384;2023-05-07T09:45:04;98803.39;;;7.62;98.36
76815;BME280;65768;49.906;19.384;2023-05-07T09:48:10;98806.44;;;7.75;98.25
76815;BME280;65768;49.906;19.384;2023-05-07T09:54:07;98805.07;;;7.93;98.23
76815;BME280;65768;49.906;19.384;2023-05-07T09:56:59;98810.67;;;7.86;96.63
76815;BME280;65768;49.906;19.384;2023-05-07T09:59:47;98814.94;;;7.75;96.33
76815;BME280;65768;49.906;19.384;2023-05-07T10:02:40;98825.00;;;7.67;96.75
76815;BME280;65768;49.906;19.384;2023-05-07T10:05:41;98825.94;;;7.62;96.70
76815;BME280;65768;49.906;19.384;2023-05-07T10:08:19;98830.29;;;7.54;96.54
76815;BME280;65768;49.906;19.384;2023-05-07T10:10:58;98834.30;;;7.63;97.53
76815;BME280;65768;49.906;19.384;2023-05-07T10:14:04;98831.55;;;7.64;97.57
76815;BME280;65768;49.906;19.384;2023-05-07T10:17:02;98838.83;;;7.64;96.64
76815;BME280;65768;49.906;19.384;2023-05-07T10:19:44;98839.98;;;7.61;96.59
76815;BME280;65768;49.906;19.384;2023-05-07T10:22:47;98840.27;;;7.51;97.63
76815;BME280;65768;49.906;19.384;2023-05-07T10:25:39;98842.19;;;7.43;97.93
76815;BME280;65768;49.906;19.384;2023-05-07T10:28:20;98849.30;;;7.36;98.63
76815;BME280;65768;49.906;19.384;2023-05-07T10:31:40;98849.67;;;7.30;98.57
76815;BME280;65768;49.906;19.384;2023-05-07T10:34:16;98855.56;;;7.37;98.79
76815;BME280;65768;49.906;19.384;2023-05-07T10:37:12;98854.96;;;7.41;99.01
76815;BME280;65768;49.906;19.384;2023-05-07T10:40:07;98862.21;;;7.39;98.57
76815;BME280;65768;49.906;19.384;2023-05-07T10:42:59;98861.56;;;7.34;98.43
76815;BME280;65768;49.906;19.384;2023-05-07T10:49:24;98869.74;;;7.28;99.02
76815;BME280;65768;49.906;19.384;2023-05-07T10:52:23;98868.83;;;7.40;98.23
76815;BME280;65768;49.906;19.384;2023-05-07T10:55:21;98870.60;;;7.35;99.22
76815;BME280;65768;49.906;19.384;2023-05-07T10:58:25;98872.00;;;7.14;98.80
76815;BME280;65768;49.906;19.384;2023-05-07T11:01:12;98870.17;;;7.10;99.14
76815;BME280;65768;49.906;19.384;2023-05-07T11:04:16;98871.21;;;7.10;98.97
76815;BME280;65768;49.906;19.384;2023-05-07T11:07:21;98869.03;;;7.13;99.04
76815;BME280;65768;49.906;19.384;2023-05-07T11:13:21;98871.00;;;7.37;97.96
76815;BME280;65768;49.906;19.384;2023-05-07T11:15:57;98874.83;;;7.53;96.96
76815;BME280;65768;49.906;19.384;2023-05-07T11:18:58;98879.59;;;7.63;96.40
76815;BME280;65768;49.906;19.384;2023-05-07T11:21:58;98875.81;;;7.81;96.10
76815;BME280;65768;49.906;19.384;2023-05-07T11:27:47;98882.98;;;7.59;96.37
76815;BME280;65768;49.906;19.384;2023-05-07T11:30:29;98885.21;;;7.52;97.45
76815;BME280;65768;49.906;19.384;2023-05-07T11:33:19;98891.67;;;7.39;97.22
76815;BME280;65768;49.906;19.384;2023-05-07T11:36:30;98893.70;;;7.29;97.34
76815;BME280;65768;49.906;19.384;2023-05-07T11:39:29;98897.83;;;7.50;97.76
76815;BME280;65768;49.906;19.384;2023-05-07T11:45:31;98903.85;;;7.62;96.71
76815;BME280;65768;49.906;19.384;2023-05-07T11:48:14;98903.63;;;7.53;97.11
76815;BME280;65768;49.906;19.384;2023-05-07T11:51:20;98909.33;;;7.30;97.23
76815;BME280;65768;49.906;19.384;2023-05-07T11:54:21;98908.43;;;7.43;97.61
76815;BME280;65768;49.906;19.384;2023-05-07T11:57:32;98909.16;;;7.45;97.16
76815;BME280;65768;49.906;19.384;2023-05-07T12:00:23;98904.59;;;7.50;97.62
76815;BME280;65768;49.906;19.384;2023-05-07T12:06:21;98911.05;;;7.66;96.31
76815;BME280;65768;49.906;19.384;2023-05-07T12:09:01;98913.71;;;7.84;96.55
76815;BME280;65768;49.906;19.384;2023-05-07T12:11:58;98915.55;;;7.81;95.60
76815;BME280;65768;49.906;19.384;2023-05-07T12:15:03;98921.79;;;7.65;96.33
76815;BME280;65768;49.906;19.384;2023-05-07T12:17:43;98922.05;;;7.84;95.74
76815;BME280;65768;49.906;19.384;2023-05-07T12:20:30;98929.05;;;7.95;95.88
76815;BME280;65768;49.906;19.384;2023-05-07T12:23:41;98926.55;;;7.83;95.63
76815;BME280;65768;49.906;19.384;2023-05-07T12:26:22;98924.38;;;7.87;95.77
76815;BME280;65768;49.906;19.384;2023-05-07T12:29:43;98925.84;;;7.53;95.79
76815;BME280;65768;49.906;19.384;2023-05-07T12:32:25;98929.08;;;7.43;95.59
76815;BME280;65768;49.906;19.384;2023-05-07T12:41:57;98934.77;;;7.79;94.67
76815;BME280;65768;49.906;19.384;2023-05-07T12:44:56;98936.20;;;7.96;94.08
76815;BME280;65768;49.906;19.384;2023-05-07T12:47:48;98935.64;;;7.72;94.12
76815;BME280;65768;49.906;19.384;2023-05-07T12:50:37;98935.16;;;7.89;94.50
76815;BME280;65768;49.906;19.384;2023-05-07T12:53:34;98935.91;;;7.91;94.12
76815;BME280;65768;49.906;19.384;2023-05-07T12:56:25;98939.58;;;7.99;92.93
76815;BME280;65768;49.906;19.384;2023-05-07T12:59:19;98937.42;;;8.04;92.69
76815;BME280;65768;49.906;19.384;2023-05-07T13:02:00;98940.45;;;8.00;92.02
76815;BME280;65768;49.906;19.384;2023-05-07T13:04:52;98943.73;;;7.84;92.03
76815;BME280;65768;49.906;19.384;2023-05-07T13:08:03;98942.30;;;7.81;92.58
76815;BME280;65768;49.906;19.384;2023-05-07T13:14:00;98949.67;;;7.48;92.38
76815;BME280;65768;49.906;19.384;2023-05-07T13:22:55;98949.44;;;7.68;93.31
76815;BME280;65768;49.906;19.384;2023-05-07T13:25:50;98955.30;;;7.81;92.50
76815;BME280;65768;49.906;19.384;2023-05-07T13:31:33;98954.91;;;8.02;91.21
76815;BME280;65768;49.906;19.384;2023-05-07T13:35:07;98951.09;;;7.86;91.58
76815;BME280;65768;49.906;19.384;2023-05-07T13:38:25;98949.48;;;7.85;91.26
76815;BME280;65768;49.906;19.384;2023-05-07T13:41:32;98949.85;;;7.64;91.23
76815;BME280;65768;49.906;19.384;2023-05-07T13:44:11;98953.91;;;7.45;91.76
76815;BME280;65768;49.906;19.384;2023-05-07T13:50:31;98953.13;;;7.48;90.98
76815;BME280;65768;49.906;19.384;2023-05-07T13:53:29;98953.32;;;7.42;90.90
76815;BME280;65768;49.906;19.384;2023-05-07T13:56:36;98956.15;;;7.51;91.26
76815;BME280;65768;49.906;19.384;2023-05-07T13:59:24;98953.30;;;7.41;91.30
76815;BME280;65768;49.906;19.384;2023-05-07T14:02:03;98949.73;;;7.30;91.73
76815;BME280;65768;49.906;19.384;2023-05-07T14:04:56;98952.11;;;7.15;92.09
76815;BME280;65768;49.906;19.384;2023-05-07T14:11:01;98964.86;;;6.99;92.82
76815;BME280;65768;49.906;19.384;2023-05-07T14:13:56;98966.13;;;7.00;93.03
76815;BME280;65768;49.906;19.384;2023-05-07T14:17:20;98968.23;;;6.94;93.23
76815;BME280;65768;49.906;19.384;2023-05-07T14:20:09;98968.95;;;6.83;93.54
76815;BME280;65768;49.906;19.384;2023-05-07T14:23:13;98974.30;;;6.89;92.76
76815;BME280;65768;49.906;19.384;2023-05-07T14:26:15;98980.98;;;6.85;93.05
76815;BME280;65768;49.906;19.384;2023-05-07T14:29:14;98989.92;;;6.83;93.36
76815;BME280;65768;49.906;19.384;2023-05-07T14:32:07;98990.14;;;6.84;92.49
76815;BME280;65768;49.906;19.384;2023-05-07T14:35:11;98992.65;;;6.87;92.44
76815;BME280;65768;49.906;19.384;2023-05-07T14:38:20;98989.33;;;6.99;91.77
76815;BME280;65768;49.906;19.384;2023-05-07T14:41:51;98991.18;;;6.98;91.14
76815;BME280;65768;49.906;19.384;2023-05-07T14:44:46;98995.84;;;7.09;91.51
76815;BME280;65768;49.906;19.384;2023-05-07T14:47:46;98993.80;;;7.18;91.19
76815;BME280;65768;49.906;19.384;2023-05-07T14:50:40;99000.20;;;7.17;90.37
76815;BME280;65768;49.906;19.384;2023-05-07T14:53:43;99004.44;;;7.20;90.84
76815;BME280;65768;49.906;19.384;2023-05-07T14:56:41;99004.13;;;7.35;90.99
76815;BME280;65768;49.906;19.384;2023-05-07T15:02:46;98999.08;;;7.48;90.68
76815;BME280;65768;49.906;19.384;2023-05-07T15:06:03;99001.79;;;7.31;90.21
76815;BME280;65768;49.906;19.384;2023-05-07T15:09:01;99008.91;;;7.32;90.89
76815;BME280;65768;49.906;19.384;2023-05-07T15:11:39;99011.00;;;7.38;90.76
76815;BME280;65768;49.906;19.384;2023-05-07T15:14:15;99011.55;;;7.39;90.51
76815;BME280;65768;49.906;19.384;2023-05-07T15:19:47;99014.02;;;7.34;90.53
76815;BME280;65768;49.906;19.384;2023-05-07T15:22:32;99005.69;;;7.48;90.60
76815;BME280;65768;49.906;19.384;2023-05-07T15:25:11;99005.21;;;7.36;90.03
76815;BME280;65768;49.906;19.384;2023-05-07T15:28:06;99007.25;;;7.28;89.79
76815;BME280;65768;49.906;19.384;2023-05-07T15:34:08;99027.94;;;7.04;90.39
76815;BME280;65768;49.906;19.384;2023-05-07T15:37:00;99034.57;;;6.93;90.80
76815;BME280;65768;49.906;19.384;2023-05-07T15:39:31;99026.02;;;6.85;91.05
76815;BME280;65768;49.906;19.384;2023-05-07T15:42:41;99024.87;;;6.87;90.50
76815;BME280;65768;49.906;19.384;2023-05-07T15:45:32;99032.10;;;6.85;90.78
76815;BME280;65768;49.906;19.384;2023-05-07T15:51:24;99031.98;;;6.88;91.45
76815;BME280;65768;49.906;19.384;2023-05-07T15:54:08;99035.69;;;6.84;91.59
76815;BME280;65768;49.906;19.384;2023-05-07T15:57:03;99038.20;;;6.81;91.94
76815;BME280;65768;49.906;19.384;2023-05-07T16:02:56;99040.20;;;6.72;92.38
76815;BME280;65768;49.906;19.384;2023-05-07T16:06:05;99044.38;;;6.72;92.80
76815;BME280;65768;49.906;19.384;2023-05-07T16:08:42;99040.80;;;6.75;92.57
76815;BME280;65768;49.906;19.384;2023-05-07T16:11:51;99034.85;;;6.66;92.16
76815;BME280;65768;49.906;19.384;2023-05-07T16:15:04;99041.89;;;6.64;92.36
76815;BME280;65768;49.906;19.384;2023-05-07T16:18:03;99047.21;;;6.63;92.54
76815;BME280;65768;49.906;19.384;2023-05-07T16:20:54;99048.58;;;6.62;92.49
76815;BME280;65768;49.906;19.384;2023-05-07T16:23:47;99039.20;;;6.55;92.46
76815;BME280;65768;49.906;19.384;2023-05-07T16:26:41;99039.35;;;6.60;92.56
76815;BME280;65768;49.906;19.384;2023-05-07T16:30:00;99038.77;;;6.53;93.09
76815;BME280;65768;49.906;19.384;2023-05-07T16:32:44;99045.73;;;6.48;93.24
76815;BME280;65768;49.906;19.384;2023-05-07T16:42:10;99053.77;;;6.44;93.61
76815;BME280;65768;49.906;19.384;2023-05-07T16:54:43;99048.36;;;6.31;94.70
76815;BME280;65768;49.906;19.384;2023-05-07T16:57:52;99052.23;;;6.16;95.66
76815;BME280;65768;49.906;19.384;2023-05-07T17:10:35;99058.27;;;6.05;96.82
76815;BME280;65768;49.906;19.384;2023-05-07T17:26:27;99066.52;;;6.03;96.72
76815;BME280;65768;49.906;19.384;2023-05-07T17:32:31;99076.01;;;6.08;96.16
76815;BME280;65768;49.906;19.384;2023-05-07T17:52:10;99093.84;;;6.14;96.51
76815;BME280;65768;49.906;19.384;2023-05-07T17:55:19;99100.16;;;6.11;96.46
76815;BME280;65768;49.906;19.384;2023-05-07T18:05:06;99092.40;;;6.07;96.41
76815;BME280;65768;49.906;19.384;2023-05-07T18:11:11;99103.17;;;5.97;97.19
76815;BME280;65768;49.906;19.384;2023-05-07T18:14:03;99106.55;;;5.94;97.27
76815;BME280;65768;49.906;19.384;2023-05-07T18:23:43;99111.94;;;5.91;96.57
76815;BME280;65768;49.906;19.384;2023-05-07T18:43:09;99119.02;;;5.86;95.98
76815;BME280;65768;49.906;19.384;2023-05-07T18:52:25;99128.59;;;5.82;95.52
76815;BME280;65768;49.906;19.384;2023-05-07T18:55:31;99124.33;;;5.78;95.54
76815;BME280;65768;49.906;19.384;2023-05-07T18:58:54;99130.55;;;5.78;95.53
76815;BME280;65768;49.906;19.384;2023-05-07T19:02:04;99141.40;;;5.77;95.88
76815;BME280;65768;49.906;19.384;2023-05-07T19:08:38;99143.42;;;5.80;96.10